Time;durP1;ratioP1;P1;durP2;ratioP2;P2;SDS_P1;SDS_P2;PMS_P1;PMS_P2;Temp;Humidity;BMP_temperature;BMP_pressure;BME280_temperature;BME280_humidity;BME280_pressure;Samples;Min_cycle;Max_cycle;Signal;HPM_P1;HPM_P2
2021/10/20 00:01:15;;;;;;;24.35;15.72;;;;;;;8.79;71.04;95557.59;827104;71;33531;-77
2021/10/20 00:16:17;;;;;;;23.47;16.15;;;;;;;8.75;71.66;95555.72;833462;71;32823;-77
2021/10/20 00:31:09;;;;;;;20.12;15.70;;;;;;;8.68;72.00;95546.78;827661;71;30235;-78
2021/10/20 00:46:09;;;;;;;25.92;17.30;;;;;;;8.65;71.99;95539.41;828237;71;29682;-77
2021/10/20 01:01:16;;;;;;;26.62;18.20;;;;;;;8.59;71.87;95542.50;833683;71;32669;-78
2021/10/20 01:16:16;;;;;;;27.00;18.23;;;;;;;8.49;71.92;95527.24;826871;71;33647;-77
2021/10/20 01:31:11;;;;;;;27.40;18.62;;;;;;;8.41;72.03;95520.13;827811;71;27961;-76
2021/10/20 01:46:10;;;;;;;25.88;17.37;;;;;;;8.26;72.62;95528.32;833369;71;29703;-77
2021/10/20 02:01:28;;;;;;;27.85;18.80;;;;;;;8.25;72.35;95525.42;826065;71;32740;-76
2021/10/20 02:16:18;;;;;;;26.55;18.55;;;;;;;8.12;72.72;95520.08;826968;71;33732;-77
2021/10/20 02:31:15;;;;;;;26.10;18.05;;;;;;;8.01;73.22;95510.04;827579;71;32728;-81
2021/10/20 02:46:15;;;;;;;27.02;18.07;;;;;;;8.00;74.83;95526.22;827139;71;33002;-77
2021/10/20 03:16:22;;;;;;;24.23;17.42;;;;;;;8.54;70.80;95516.31;833986;71;32685;-76
2021/10/20 03:31:09;;;;;;;26.15;18.52;;;;;;;8.44;70.60;95507.60;828146;71;30256;-80
2021/10/20 03:46:13;;;;;;;24.65;18.92;;;;;;;8.28;71.32;95515.27;828053;71;32520;-76
2021/10/20 04:01:09;;;;;;;26.80;18.37;;;;;;;8.12;71.57;95506.48;827817;71;30810;-78
2021/10/20 04:16:10;;;;;;;25.02;16.87;;;;;;;8.01;71.64;95505.59;819397;71;29760;-79
2021/10/20 04:31:12;;;;;;;30.12;19.52;;;;;;;7.87;71.95;95510.13;829049;71;32028;-77
2021/10/20 04:46:10;;;;;;;27.65;18.62;;;;;;;7.75;71.81;95524.64;829125;71;30264;-77
2021/10/20 05:01:09;;;;;;;28.70;20.88;;;;;;;7.63;71.97;95518.23;828449;71;29798;-77
2021/10/20 05:16:14;;;;;;;28.10;19.45;;;;;;;7.56;72.71;95536.70;828354;71;32795;-76
2021/10/20 05:31:12;;;;;;;30.72;20.23;;;;;;;9.06;70.55;95534.48;828113;71;32031;-78
2021/10/20 05:46:16;;;;;;;31.65;21.95;;;;;;;11.53;64.59;95532.64;826767;71;33199;-75
2021/10/20 06:01:11;;;;;;;32.15;22.77;;;;;;;14.32;57.49;95540.72;828166;71;30086;-77
2021/10/20 06:16:09;;;;;;;32.73;22.70;;;;;;;15.91;58.20;95543.43;833921;71;29733;-76
2021/10/20 06:31:08;;;;;;;35.60;26.35;;;;;;;16.30;48.99;95542.91;828146;71;29597;-77
2021/10/20 06:46:09;;;;;;;29.50;24.45;;;;;;;16.15;50.38;95556.45;828319;71;29684;-75
2021/10/20 07:01:09;;;;;;;31.37;25.25;;;;;;;17.25;47.90;95550.55;833432;71;30832;-77
2021/10/20 07:16:08;;;;;;;31.90;25.12;;;;;;;16.60;47.79;95563.94;828212;71;29805;-77
2021/10/20 07:31:08;;;;;;;28.52;23.55;;;;;;;16.70;47.97;95574.86;827734;71;29272;-77
2021/10/20 07:46:10;;;;;;;32.90;25.62;;;;;;;17.70;46.28;95571.69;834457;71;30594;-77
2021/10/20 08:01:11;;;;;;;28.23;23.75;;;;;;;17.91;45.97;95552.83;828323;71;30838;-76
2021/10/20 08:16:11;;;;;;;33.38;27.05;;;;;;;18.51;44.33;95554.05;828244;71;30535;-76
2021/10/20 08:31:15;;;;;;;32.73;26.80;;;;;;;18.79;44.46;95551.09;828297;71;31612;-77
2021/10/20 08:46:21;;;;;;;28.17;22.80;;;;;;;20.09;41.71;95531.86;825464;70;32288;-75
2021/10/20 09:16:08;;;;;;;28.15;24.70;;;;;;;21.06;40.52;95509.48;827915;71;28676;-76
2021/10/20 09:31:10;;;;;;;23.73;20.70;;;;;;;20.96;39.98;95496.55;827788;71;29447;-74
2021/10/20 09:46:14;;;;;;;137.33;107.83;;;;;;;22.02;47.01;95483.00;833322;71;32764;-75
2021/10/20 10:01:30;;;;;;;24.57;20.47;;;;;;;22.08;40.46;95480.32;834170;71;31702;-77
2021/10/20 10:16:09;;;;;;;21.27;17.70;;;;;;;22.44;40.84;95455.18;828319;71;28729;-76
2021/10/20 10:31:19;;;;;;;23.80;21.33;;;;;;;22.42;37.41;95431.44;828203;71;31574;-76
2021/10/20 10:46:12;;;;;;;25.00;21.13;;;;;;;22.45;37.00;95413.39;829925;71;29246;-76
2021/10/20 11:01:15;;;;;;;22.67;20.17;;;;;;;22.62;36.14;95398.16;833358;71;31153;-76
2021/10/20 11:16:15;;;;;;;19.53;17.43;;;;;;;22.11;36.86;95375.37;833095;71;31850;-76
2021/10/20 11:31:12;;;;;;;19.93;17.80;;;;;;;20.99;37.93;95360.59;833825;71;30975;-76
2021/10/20 11:46:19;;;;;;;20.43;17.15;;;;;;;20.23;39.09;95345.83;833331;71;32108;-75
2021/10/20 12:01:17;;;;;;;16.57;14.83;;;;;;;19.71;40.50;95334.30;826821;71;32525;-75
2021/10/20 12:16:24;;;;;;;16.75;14.95;;;;;;;19.41;40.91;95319.67;826861;71;32571;-77
2021/10/20 12:31:18;;;;;;;14.87;12.95;;;;;;;19.52;41.85;95306.75;833272;71;32286;-76
2021/10/20 12:46:10;;;;;;;17.35;12.98;;;;;;;19.44;42.45;95297.72;833493;71;28702;-77
2021/10/20 13:01:13;;;;;;;17.15;14.30;;;;;;;18.70;44.40;95287.09;828783;71;31600;-75
2021/10/20 13:16:09;;;;;;;16.67;14.47;;;;;;;18.44;45.50;95281.86;828032;71;29060;-75
2021/10/20 13:31:13;;;;;;;15.68;13.95;;;;;;;18.08;46.60;95259.14;833432;71;31572;-75
2021/10/20 13:46:09;;;;;;;16.97;14.00;;;;;;;17.45;48.79;95258.70;829226;71;28769;-75
2021/10/20 14:01:14;;;;;;;17.62;14.85;;;;;;;17.15;49.79;95246.59;833494;71;31807;-76
2021/10/20 14:16:15;;;;;;;17.07;15.28;;;;;;;16.78;51.42;95232.22;827008;71;32357;-74
2021/10/20 14:31:09;;;;;;;26.45;16.20;;;;;;;16.52;52.32;95220.77;827906;71;28736;-77
2021/10/20 14:46:09;;;;;;;16.90;14.70;;;;;;;16.23;53.98;95199.56;827188;71;29795;-77
2021/10/20 15:16:09;;;;;;;17.70;14.78;;;;;;;15.55;56.50;95183.78;828087;71;28688;-78
2021/10/20 15:31:15;;;;;;;26.93;17.65;;;;;;;15.23;58.02;95185.58;827799;71;29253;-75
2021/10/20 15:46:10;;;;;;;24.37;19.17;;;;;;;14.92;58.83;95187.33;828814;71;29217;-77
2021/10/20 16:01:15;;;;;;;31.30;20.92;;;;;;;14.59;60.66;95184.85;833648;71;31739;-77
2021/10/20 16:16:08;;;;;;;28.42;21.48;;;;;;;14.37;61.64;95192.89;829368;71;29560;-82
2021/10/20 16:31:12;;;;;;;26.25;19.60;;;;;;;14.05;62.74;95201.70;833836;71;29140;-76
2021/10/20 16:46:16;;;;;;;34.78;24.85;;;;;;;13.76;63.25;95207.20;826978;71;32607;-78
2021/10/20 17:01:16;;;;;;;34.75;25.45;;;;;;;13.58;64.24;95220.17;793130;74;32537;-76
2021/10/20 17:16:10;;;;;;;26.57;18.57;;;;;;;13.32;64.98;95215.02;827567;71;29671;-75
2021/10/20 17:31:09;;;;;;;22.75;19.25;;;;;;;13.06;65.62;95210.61;827970;71;29705;-77
2021/10/20 17:46:19;;;;;;;24.35;20.25;;;;;;;12.92;66.77;95210.56;826349;71;32845;-76
2021/10/20 18:01:26;;;;;;;31.15;21.60;;;;;;;12.76;67.58;95204.71;828453;71;32783;-76
2021/10/20 18:16:08;;;;;;;32.10;23.02;;;;;;;12.54;68.46;95212.60;827641;71;30194;-78
2021/10/20 18:31:14;;;;;;;42.27;25.52;;;;;;;12.33;69.26;95217.87;826951;71;33221;-76
2021/10/20 18:46:09;;;;;;;39.10;28.15;;;;;;;12.19;69.82;95221.69;826905;71;29727;-78
2021/10/20 19:01:13;;;;;;;45.58;32.50;;;;;;;12.05;70.00;95218.94;827973;71;32635;-78
2021/10/20 19:16:15;;;;;;;43.58;33.02;;;;;;;11.91;70.08;95240.38;830550;71;32794;-80
2021/10/20 19:31:21;;;;;;;46.63;32.58;;;;;;;11.77;70.72;95227.83;838972;70;32775;-81
2021/10/20 19:46:08;;;;;;;51.42;35.63;;;;;;;11.65;70.98;95222.16;828069;71;29700;-76
2021/10/20 20:01:12;;;;;;;44.63;32.55;;;;;;;11.47;71.32;95222.29;828882;71;32076;-77
2021/10/20 20:16:15;;;;;;;51.02;34.58;;;;;;;11.34;71.97;95225.55;832445;71;32779;-79
2021/10/20 20:31:14;;;;;;;43.78;32.95;;;;;;;11.17;72.04;95220.16;825567;71;32736;-76
2021/10/20 20:46:11;;;;;;;44.20;30.92;;;;;;;11.03;71.79;95219.97;827609;71;29377;-76
2021/10/20 21:16:14;;;;;;;36.63;27.50;;;;;;;10.74;72.59;95200.16;826165;71;32717;-80
2021/10/20 21:31:15;;;;;;;36.38;26.35;;;;;;;10.65;72.65;95183.42;826716;71;32861;-78
2021/10/20 21:46:15;;;;;;;37.75;24.95;;;;;;;10.56;72.97;95182.41;826481;70;32958;-79
2021/10/20 22:01:19;;;;;;;34.48;25.05;;;;;;;10.46;73.30;95183.77;814424;70;32785;-78
2021/10/20 22:16:10;;;;;;;36.88;24.75;;;;;;;10.33;73.42;95172.81;833681;71;30350;-78
2021/10/20 22:31:14;;;;;;;34.25;24.55;;;;;;;10.24;74.03;95157.36;829359;71;32379;-80
2021/10/20 22:46:10;;;;;;;32.60;21.70;;;;;;;10.14;73.76;95150.84;828075;71;30362;-78
2021/10/20 23:01:08;;;;;;;30.55;22.25;;;;;;;9.82;73.80;95119.98;827787;71;29989;-78
2021/10/20 23:16:14;;;;;;;28.67;20.70;;;;;;;9.89;73.76;95130.19;833416;71;33488;-76
2021/10/20 23:31:17;;;;;;;26.37;19.85;;;;;;;9.76;73.91;95121.05;832740;71;30242;-77
